createdAt,value
2017-09-28T00:02:11.888Z,15.43
2017-09-28T00:04:39.560Z,16.37
2017-09-28T00:07:07.856Z,19.17
2017-09-28T00:09:35.430Z,23.47
2017-09-28T00:12:03.381Z,24.27
2017-09-28T00:14:31.815Z,21.80
2017-09-28T00:16:59.524Z,22.27
2017-09-28T00:19:27.064Z,22.73
2017-09-28T00:21:55.328Z,24.63
2017-09-28T00:24:22.917Z,24.53
2017-09-28T00:26:50.972Z,24.07
2017-09-28T00:29:19.239Z,24.67
2017-09-28T00:31:46.968Z,25.17
2017-09-28T00:34:14.553Z,26.37
2017-09-28T00:36:42.056Z,26.83
2017-09-28T00:39:09.624Z,26.00
2017-09-28T00:41:37.166Z,25.40
2017-09-28T00:44:05.439Z,27.07
2017-09-28T00:46:33.005Z,26.10
2017-09-28T00:49:00.975Z,29.90
2017-09-28T00:51:28.732Z,26.47
2017-09-28T00:53:57.052Z,28.20
2017-09-28T00:56:24.573Z,26.70
2017-09-28T00:58:52.198Z,28.63
2017-09-28T01:01:19.762Z,28.87
2017-09-28T01:03:47.385Z,28.00
2017-09-28T01:06:14.896Z,27.97
2017-09-28T01:08:43.404Z,27.20
2017-09-28T01:11:11.877Z,30.40
2017-09-28T01:13:39.393Z,29.17
2017-09-28T01:16:07.127Z,27.00
2017-09-28T01:18:34.636Z,28.67
2017-09-28T01:21:02.923Z,26.20
2017-09-28T01:23:30.489Z,25.67
2017-09-28T01:25:58.005Z,29.30
2017-09-28T01:28:25.856Z,28.40
2017-09-28T01:30:53.373Z,26.70
2017-09-28T01:33:20.880Z,20.43
2017-09-28T01:35:48.483Z,17.30
2017-09-28T01:38:16.772Z,26.00
2017-09-28T01:40:44.332Z,25.90
2017-09-28T01:43:12.320Z,17.70
2017-09-28T01:45:39.877Z,18.07
2017-09-28T01:48:07.448Z,17.90
2017-09-28T01:50:34.968Z,18.03
2017-09-28T01:53:02.609Z,18.23
2017-09-28T01:55:30.136Z,19.27
2017-09-28T01:57:58.251Z,19.13
2017-09-28T02:00:26.584Z,21.80
2017-09-28T02:02:54.092Z,42.87
2017-09-28T02:05:22.528Z,38.60
2017-09-28T02:07:50.106Z,36.40
2017-09-28T02:10:18.388Z,39.77
2017-09-28T02:12:46.321Z,23.80
2017-09-28T02:15:13.881Z,17.77
2017-09-28T02:17:41.581Z,19.70
2017-09-28T02:20:09.108Z,15.13
2017-09-28T02:22:36.641Z,19.50
2017-09-28T02:25:04.165Z,15.43
2017-09-28T02:27:32.472Z,20.10
2017-09-28T02:29:59.981Z,18.23
2017-09-28T02:32:27.620Z,18.53
2017-09-28T02:34:55.120Z,19.20
2017-09-28T02:37:23.454Z,16.80
2017-09-28T02:39:50.968Z,21.87
2017-09-28T02:42:18.926Z,36.13
2017-09-28T02:44:47.564Z,30.20
2017-09-28T02:47:15.340Z,30.47
2017-09-28T02:49:42.963Z,40.70
2017-09-28T02:52:11.243Z,40.60
2017-09-28T02:54:38.784Z,42.00
2017-09-28T02:57:06.288Z,40.63
2017-09-28T02:59:33.794Z,36.20
2017-09-28T03:02:01.708Z,37.73
2017-09-28T03:04:29.232Z,29.13
2017-09-28T03:06:56.956Z,18.63
2017-09-28T03:09:24.465Z,19.17
2017-09-28T03:11:51.977Z,29.13
2017-09-28T03:14:20.286Z,30.47
2017-09-28T03:16:47.816Z,28.07
2017-09-28T03:19:15.336Z,22.90
2017-09-28T03:21:42.883Z,25.33
2017-09-28T03:24:10.379Z,32.10
2017-09-28T03:26:38.648Z,31.63
2017-09-28T03:29:06.176Z,38.53
2017-09-28T03:31:34.107Z,35.90
2017-09-28T03:34:01.618Z,38.80
2017-09-28T03:36:29.132Z,38.13
2017-09-28T03:38:57.427Z,37.33
2017-09-28T03:41:24.928Z,23.83
2017-09-28T03:43:52.660Z,27.67
2017-09-28T03:46:20.162Z,36.43
2017-09-28T03:48:47.677Z,27.87
2017-09-28T03:51:15.238Z,27.17
2017-09-28T03:53:43.812Z,24.40
2017-09-28T03:56:11.340Z,23.37
2017-09-28T03:58:39.646Z,31.37
2017-09-28T04:01:07.239Z,28.00
2017-09-28T04:03:34.785Z,26.03
2017-09-28T04:06:02.295Z,24.93
2017-09-28T04:08:30.241Z,27.20
2017-09-28T04:10:58.612Z,26.73
2017-09-28T04:13:26.167Z,26.63
2017-09-28T04:15:53.720Z,27.00
2017-09-28T04:18:21.227Z,27.30
2017-09-28T04:20:48.733Z,29.93
2017-09-28T04:23:16.275Z,30.73
2017-09-28T04:25:43.815Z,27.17
2017-09-28T04:28:11.362Z,27.10
2017-09-28T04:30:38.932Z,27.20
2017-09-28T04:33:06.833Z,26.63
2017-09-28T04:35:34.380Z,25.30
2017-09-28T04:38:01.883Z,26.70
2017-09-28T04:40:29.765Z,30.50
2017-09-28T04:42:58.072Z,26.97
2017-09-28T04:45:25.581Z,26.00
2017-09-28T04:47:53.125Z,26.50
2017-09-28T04:50:22.035Z,24.73
2017-09-28T04:52:49.549Z,23.77
2017-09-28T04:55:17.160Z,25.00
2017-09-28T04:57:44.705Z,24.33
2017-09-28T05:00:12.223Z,21.67
2017-09-28T05:02:39.734Z,24.47
2017-09-28T05:05:07.672Z,22.40
2017-09-28T05:07:35.213Z,21.40
2017-09-28T05:10:02.768Z,23.93
2017-09-28T05:12:31.073Z,23.93
2017-09-28T05:14:58.568Z,22.63
2017-09-28T05:17:26.509Z,24.60
2017-09-28T05:19:54.808Z,26.43
2017-09-28T05:22:22.753Z,25.47
2017-09-28T05:24:50.258Z,23.50
2017-09-28T05:27:17.880Z,22.07
2017-09-28T05:29:45.488Z,20.90
2017-09-28T05:32:13.830Z,21.70
2017-09-28T05:34:41.345Z,19.43
2017-09-28T05:37:08.872Z,18.90
2017-09-28T05:39:37.179Z,18.60
2017-09-28T05:42:04.739Z,20.17
2017-09-28T05:44:33.041Z,20.60
2017-09-28T05:47:01.862Z,20.70
2017-09-28T05:49:29.425Z,20.20
2017-09-28T05:51:57.145Z,18.90
2017-09-28T05:54:24.640Z,21.00
2017-09-28T05:56:52.200Z,20.07
2017-09-28T05:59:20.792Z,21.30
2017-09-28T06:01:48.305Z,19.47
2017-09-28T06:04:15.993Z,18.00
2017-09-28T06:06:43.604Z,21.47
2017-09-28T06:09:11.160Z,19.57
2017-09-28T06:11:38.659Z,17.70
2017-09-28T06:14:06.223Z,16.10
2017-09-28T06:16:33.736Z,15.57
2017-09-28T06:19:02.041Z,16.47
2017-09-28T06:21:29.556Z,16.10
2017-09-28T06:23:57.876Z,14.70
2017-09-28T06:26:25.399Z,14.37
2017-09-28T06:28:53.728Z,14.80
2017-09-28T06:31:21.237Z,12.50
2017-09-28T06:33:49.708Z,14.60
2017-09-28T06:36:17.680Z,15.27
2017-09-28T06:38:45.193Z,15.30
2017-09-28T06:41:13.181Z,15.03
2017-09-28T06:43:41.133Z,15.60
2017-09-28T06:46:09.028Z,14.70
2017-09-28T06:48:36.537Z,15.80
2017-09-28T06:51:04.076Z,15.83
2017-09-28T06:53:31.604Z,16.03
2017-09-28T06:55:59.730Z,18.90
2017-09-28T06:58:28.800Z,17.93
2017-09-28T07:00:57.197Z,15.60
2017-09-28T07:03:24.740Z,16.30
2017-09-28T07:05:52.290Z,17.17
2017-09-28T07:08:20.789Z,17.63
2017-09-28T07:10:48.374Z,16.63
2017-09-28T07:13:15.942Z,16.37
2017-09-28T07:15:44.274Z,15.70
2017-09-28T07:18:11.846Z,20.83
2017-09-28T07:20:39.401Z,18.97
2017-09-28T07:23:06.915Z,18.17
2017-09-28T07:25:34.459Z,18.70
2017-09-28T07:28:02.107Z,18.27
2017-09-28T07:30:30.023Z,20.33
2017-09-28T07:32:57.693Z,19.40
2017-09-28T07:35:25.407Z,17.63
2017-09-28T07:37:53.035Z,22.77
2017-09-28T07:40:21.018Z,19.20
2017-09-28T07:42:48.983Z,21.00
2017-09-28T07:45:17.292Z,22.37
2017-09-28T07:47:45.611Z,19.97
2017-09-28T07:50:13.277Z,19.33
2017-09-28T07:52:41.219Z,20.87
2017-09-28T07:55:08.784Z,21.20
2017-09-28T07:57:36.298Z,19.40
2017-09-28T08:00:03.891Z,20.70
2017-09-28T08:02:32.164Z,23.67
2017-09-28T08:04:59.730Z,19.90
2017-09-28T08:07:27.273Z,19.77
2017-09-28T08:09:55.558Z,18.03
2017-09-28T08:12:23.613Z,19.00
2017-09-28T08:14:51.330Z,18.40
2017-09-28T08:17:18.857Z,22.73
2017-09-28T08:19:46.406Z,19.10
2017-09-28T08:22:14.795Z,19.07
2017-09-28T08:24:43.113Z,21.03
2017-09-28T08:27:10.638Z,19.13
2017-09-28T08:29:38.193Z,22.27
2017-09-28T08:32:05.745Z,19.83
2017-09-28T08:34:33.689Z,19.63
2017-09-28T08:37:02.124Z,17.93
2017-09-28T08:39:30.429Z,22.00
2017-09-28T08:41:58.013Z,20.67
2017-09-28T08:44:26.412Z,20.27
2017-09-28T08:46:54.001Z,19.87
2017-09-28T08:49:21.541Z,19.77
2017-09-28T08:51:49.076Z,19.30
2017-09-28T08:54:17.003Z,20.37
2017-09-28T08:56:44.958Z,20.40
2017-09-28T08:59:12.861Z,17.57
2017-09-28T09:01:40.414Z,19.50
2017-09-28T09:04:08.048Z,18.97
2017-09-28T09:06:35.611Z,18.50
2017-09-28T09:09:03.152Z,18.60
2017-09-28T09:11:31.114Z,18.37
2017-09-28T09:13:58.944Z,18.80
2017-09-28T09:16:27.610Z,20.53
2017-09-28T09:18:55.177Z,17.27
2017-09-28T09:21:23.473Z,16.03
2017-09-28T09:23:51.059Z,15.87
2017-09-28T09:26:18.582Z,16.63
2017-09-28T09:28:46.524Z,17.13
2017-09-28T09:31:14.590Z,15.53
2017-09-28T09:33:42.080Z,17.57
2017-09-28T09:36:10.394Z,16.30
2017-09-28T09:38:37.919Z,17.80
2017-09-28T09:41:05.473Z,16.67
2017-09-28T09:43:33.844Z,18.13
2017-09-28T09:46:01.759Z,17.00
2017-09-28T09:48:29.675Z,16.63
2017-09-28T09:50:57.624Z,18.23
2017-09-28T09:53:26.276Z,18.60
2017-09-28T09:55:55.372Z,17.67
2017-09-28T09:58:23.705Z,16.77
2017-09-28T10:00:52.389Z,17.43
2017-09-28T10:03:21.049Z,19.10
2017-09-28T10:05:49.038Z,16.37
2017-09-28T10:08:21.352Z,17.43
2017-09-28T10:10:55.267Z,16.77
2017-09-28T10:13:26.008Z,17.00
2017-09-28T10:15:55.820Z,16.33
2017-09-28T10:18:23.942Z,18.50
2017-09-28T10:20:52.244Z,14.50
2017-09-28T10:23:20.576Z,14.77
2017-09-28T10:25:48.507Z,14.27
2017-09-28T10:28:17.557Z,13.87
2017-09-28T10:30:46.502Z,15.60
2017-09-28T10:33:14.824Z,13.60
2017-09-28T10:35:42.787Z,12.90
2017-09-28T10:38:11.476Z,11.13
2017-09-28T10:40:39.765Z,13.10
2017-09-28T10:43:07.724Z,13.00
2017-09-28T10:45:35.272Z,12.70
2017-09-28T10:48:02.798Z,11.87
2017-09-28T10:50:30.766Z,12.57
2017-09-28T10:52:59.065Z,13.13
2017-09-28T10:55:26.697Z,11.57
2017-09-28T10:57:55.021Z,12.17
2017-09-28T11:00:23.324Z,10.73
2017-09-28T11:02:50.905Z,10.40
2017-09-28T11:05:19.037Z,10.33
2017-09-28T11:07:47.317Z,11.50
2017-09-28T11:10:15.070Z,9.90
2017-09-28T11:12:42.596Z,10.93
2017-09-28T11:15:10.503Z,9.67
2017-09-28T11:17:38.453Z,9.07
2017-09-28T11:20:05.982Z,9.03
2017-09-28T11:22:33.535Z,15.03
2017-09-28T11:25:01.855Z,8.73
2017-09-28T11:27:29.763Z,9.87
2017-09-28T11:29:57.325Z,9.03
2017-09-28T11:32:25.271Z,8.23
2017-09-28T11:34:52.863Z,8.03
2017-09-28T11:37:21.265Z,10.53
2017-09-28T11:39:49.565Z,7.60
2017-09-28T11:42:17.851Z,7.80
2017-09-28T11:44:45.404Z,8.47
2017-09-28T11:47:12.933Z,8.93
2017-09-28T11:49:40.857Z,7.33
2017-09-28T11:52:08.804Z,9.37
2017-09-28T11:54:37.660Z,10.23
2017-09-28T11:57:05.214Z,8.00
2017-09-28T11:59:34.203Z,7.50
2017-09-28T12:02:02.138Z,6.77
2017-09-28T12:04:30.929Z,6.60
2017-09-28T12:06:58.836Z,6.97
2017-09-28T12:09:27.184Z,6.37
2017-09-28T12:11:55.718Z,7.43
2017-09-28T12:14:23.432Z,7.37
2017-09-28T12:16:51.034Z,8.80
2017-09-28T12:19:20.067Z,8.70
2017-09-28T12:21:47.965Z,10.30
2017-09-28T12:24:16.673Z,7.13
2017-09-28T12:26:45.993Z,8.97
2017-09-28T12:29:13.924Z,13.50
2017-09-28T12:31:43.130Z,8.00
2017-09-28T12:34:10.811Z,9.30
2017-09-28T12:36:39.470Z,11.13
2017-09-28T12:39:08.396Z,8.47
2017-09-28T12:41:36.306Z,8.73
2017-09-28T12:44:03.840Z,7.00
2017-09-28T12:46:32.731Z,7.93
2017-09-28T12:49:01.402Z,8.80
2017-09-28T12:51:29.330Z,7.00
2017-09-28T12:53:57.235Z,7.47
2017-09-28T12:56:25.521Z,6.53
2017-09-28T12:58:53.476Z,6.97
2017-09-28T13:01:21.483Z,6.10
2017-09-28T13:03:49.414Z,6.43
2017-09-28T13:06:17.316Z,6.07
2017-09-28T13:08:45.650Z,8.37
2017-09-28T13:11:13.941Z,7.00
2017-09-28T13:13:42.846Z,6.00
2017-09-28T13:16:11.167Z,7.43
2017-09-28T13:18:39.824Z,10.23
2017-09-28T13:21:07.956Z,7.97
2017-09-28T13:23:35.930Z,8.30
2017-09-28T13:26:04.218Z,7.23
2017-09-28T13:28:33.124Z,9.10
2017-09-28T13:31:01.452Z,8.57
2017-09-28T13:33:29.403Z,9.20
2017-09-28T13:35:57.707Z,6.43
2017-09-28T13:38:26.031Z,6.97
2017-09-28T13:40:55.274Z,8.60
2017-09-28T13:43:22.790Z,8.60
2017-09-28T13:45:51.816Z,7.33
2017-09-28T13:48:19.363Z,8.03
2017-09-28T13:50:47.640Z,8.23
2017-09-28T13:53:15.603Z,7.83
2017-09-28T13:55:43.124Z,9.80
2017-09-28T13:58:11.517Z,11.10
2017-09-28T14:00:39.064Z,13.30
2017-09-28T14:03:07.957Z,10.80
2017-09-28T14:05:36.065Z,9.80
2017-09-28T14:08:04.337Z,13.03
2017-09-28T14:10:31.935Z,9.80
2017-09-28T14:12:59.476Z,11.00
2017-09-28T14:15:28.185Z,9.87
2017-09-28T14:17:56.534Z,10.10
2017-09-28T14:20:24.454Z,11.20
2017-09-28T14:22:52.774Z,8.13
2017-09-28T14:25:21.066Z,8.63
2017-09-28T14:27:49.022Z,9.20
2017-09-28T14:30:16.967Z,8.60
2017-09-28T14:32:45.274Z,11.20
2017-09-28T14:35:14.162Z,7.53
2017-09-28T14:37:42.477Z,9.50
2017-09-28T14:40:11.507Z,9.73
2017-09-28T14:42:39.488Z,10.70
2017-09-28T14:45:07.113Z,8.70
2017-09-28T14:47:34.556Z,10.23
2017-09-28T14:50:02.984Z,7.80
2017-09-28T14:52:30.904Z,7.77
2017-09-28T14:54:58.476Z,7.40
2017-09-28T14:57:26.593Z,8.33
2017-09-28T14:59:54.261Z,9.10
2017-09-28T15:02:22.528Z,7.33
2017-09-28T15:04:50.041Z,8.77
2017-09-28T15:07:18.604Z,7.20
2017-09-28T15:09:46.512Z,10.87
2017-09-28T15:12:14.018Z,6.50
2017-09-28T15:14:41.976Z,7.37
2017-09-28T15:17:09.640Z,7.33
2017-09-28T15:19:37.912Z,7.87
2017-09-28T15:22:05.835Z,7.37
2017-09-28T15:24:34.340Z,7.10
2017-09-28T15:27:02.025Z,6.43
2017-09-28T15:29:29.533Z,7.43
2017-09-28T15:31:57.817Z,7.60
2017-09-28T15:34:26.145Z,8.10
2017-09-28T15:36:53.712Z,7.57
2017-09-28T15:39:21.648Z,8.13
2017-09-28T15:41:49.246Z,7.20
2017-09-28T15:44:17.332Z,9.27
2017-09-28T15:46:44.873Z,8.93
2017-09-28T15:49:12.424Z,7.00
2017-09-28T15:51:39.938Z,7.47
2017-09-28T15:54:07.999Z,7.47
2017-09-28T15:56:35.948Z,7.60
2017-09-28T15:59:03.853Z,6.87
2017-09-28T16:01:31.778Z,6.90
2017-09-28T16:03:59.347Z,6.23
2017-09-28T16:06:27.976Z,5.73
2017-09-28T16:08:55.514Z,8.70
2017-09-28T16:11:23.828Z,6.73
2017-09-28T16:13:51.733Z,7.43
2017-09-28T16:16:19.293Z,5.90
2017-09-28T16:18:47.568Z,7.37
2017-09-28T16:21:15.468Z,8.50
2017-09-28T16:23:43.005Z,7.30
2017-09-28T16:26:11.286Z,8.77
2017-09-28T16:28:39.050Z,8.63
2017-09-28T16:31:07.753Z,6.83
2017-09-28T16:33:35.280Z,7.87
2017-09-28T16:36:02.816Z,8.20
2017-09-28T16:38:31.128Z,7.87
2017-09-28T16:40:59.822Z,8.80
2017-09-28T16:43:29.112Z,6.87
2017-09-28T16:45:56.648Z,7.40
2017-09-28T16:48:24.713Z,7.80
2017-09-28T16:50:52.527Z,7.33
2017-09-28T16:53:20.467Z,7.33
2017-09-28T16:55:48.112Z,6.00
2017-09-28T16:58:16.427Z,6.77
2017-09-28T17:00:44.753Z,6.60
2017-09-28T17:03:12.665Z,11.03
2017-09-28T17:05:40.950Z,7.07
2017-09-28T17:08:08.495Z,7.33
2017-09-28T17:10:36.012Z,7.00
2017-09-28T17:13:03.740Z,9.00
2017-09-28T17:15:32.250Z,7.87
2017-09-28T17:18:00.209Z,7.20
2017-09-28T17:20:27.722Z,7.43
2017-09-28T17:22:56.061Z,9.33
2017-09-28T17:25:24.098Z,7.13
2017-09-28T17:27:51.640Z,7.50
2017-09-28T17:30:19.939Z,7.70
2017-09-28T17:32:47.476Z,8.13
2017-09-28T17:35:16.257Z,7.37
2017-09-28T17:37:43.792Z,7.43
2017-09-28T17:40:11.349Z,7.80
2017-09-28T17:42:39.246Z,9.53
2017-09-28T17:45:06.748Z,8.63
2017-09-28T17:47:34.299Z,8.80
2017-09-28T17:50:01.982Z,7.73
2017-09-28T17:52:29.909Z,8.80
2017-09-28T17:54:57.413Z,8.10
2017-09-28T17:57:25.342Z,8.40
2017-09-28T17:59:52.848Z,8.10
2017-09-28T18:02:20.905Z,8.13
2017-09-28T18:04:48.416Z,8.63
2017-09-28T18:07:16.731Z,8.57
2017-09-28T18:09:44.240Z,9.30
2017-09-28T18:12:12.181Z,7.73
2017-09-28T18:14:39.689Z,8.50
2017-09-28T18:17:07.986Z,8.87
2017-09-28T18:19:35.501Z,9.53
2017-09-28T18:22:03.040Z,9.40
2017-09-28T18:24:30.599Z,9.77
2017-09-28T18:26:58.760Z,9.70
2017-09-28T18:29:26.343Z,11.90
2017-09-28T18:31:54.653Z,10.40
2017-09-28T18:34:22.229Z,10.80
2017-09-28T18:36:49.745Z,10.80
2017-09-28T18:39:17.355Z,11.40
2017-09-28T18:41:44.884Z,10.50
2017-09-28T18:44:12.425Z,9.27
2017-09-28T18:46:40.342Z,9.40
2017-09-28T18:49:08.273Z,9.83
2017-09-28T18:51:36.176Z,9.37
2017-09-28T18:54:03.749Z,8.70
2017-09-28T18:56:31.322Z,11.63
2017-09-28T18:58:59.226Z,11.03
2017-09-28T19:01:27.501Z,10.27
2017-09-28T19:03:55.471Z,12.70
2017-09-28T19:06:23.077Z,10.73
2017-09-28T19:08:50.998Z,11.70
2017-09-28T19:11:19.129Z,11.43
2017-09-28T19:13:48.200Z,11.00
2017-09-28T19:16:15.713Z,9.70
2017-09-28T19:18:44.022Z,10.40
2017-09-28T19:21:12.354Z,10.20
2017-09-28T19:23:41.007Z,12.20
2017-09-28T19:26:08.532Z,11.47
2017-09-28T19:28:37.443Z,11.00
2017-09-28T19:31:06.351Z,11.13
2017-09-28T19:33:33.876Z,13.00
2017-09-28T19:36:01.421Z,11.73
2017-09-28T19:38:29.361Z,10.73
2017-09-28T19:40:56.868Z,11.97
2017-09-28T19:43:24.385Z,11.50
2017-09-28T19:45:52.693Z,11.23
2017-09-28T19:48:20.242Z,12.70
2017-09-28T19:50:48.515Z,12.17
2017-09-28T19:53:16.085Z,11.77
2017-09-28T19:55:44.378Z,12.33
2017-09-28T19:58:12.299Z,12.50
2017-09-28T20:00:39.854Z,10.50
2017-09-28T20:03:07.394Z,11.70
2017-09-28T20:05:34.950Z,13.07
2017-09-28T20:08:02.577Z,13.03
2017-09-28T20:10:30.493Z,13.10
2017-09-28T20:12:58.018Z,13.93
2017-09-28T20:15:25.564Z,13.77
2017-09-28T20:17:53.108Z,12.77
2017-09-28T20:20:21.113Z,15.07
2017-09-28T20:22:48.628Z,12.87
2017-09-28T20:25:17.273Z,11.33
2017-09-28T20:27:44.829Z,11.33
2017-09-28T20:30:12.737Z,12.53
2017-09-28T20:32:40.369Z,12.63
2017-09-28T20:35:07.924Z,11.47
2017-09-28T20:37:35.437Z,12.80
2017-09-28T20:40:02.965Z,13.17
2017-09-28T20:42:30.496Z,14.43
2017-09-28T20:44:58.405Z,14.87
2017-09-28T20:47:25.962Z,15.70
2017-09-28T20:49:53.516Z,16.53
2017-09-28T20:52:21.957Z,14.37
2017-09-28T20:54:49.497Z,15.10
2017-09-28T20:57:17.082Z,15.70
2017-09-28T20:59:45.360Z,15.10
2017-09-28T21:02:12.867Z,14.90
2017-09-28T21:04:41.231Z,14.90
2017-09-28T21:07:08.739Z,16.20
2017-09-28T21:09:36.296Z,15.00
2017-09-28T21:12:03.800Z,14.63
2017-09-28T21:14:31.489Z,14.47
2017-09-28T21:16:59.415Z,14.40
2017-09-28T21:19:26.929Z,9.93
2017-09-28T21:21:54.466Z,14.80
2017-09-28T21:24:22.746Z,12.87
2017-09-28T21:26:51.429Z,15.57
2017-09-28T21:29:20.113Z,15.57
2017-09-28T21:31:48.391Z,15.13
2017-09-28T21:34:15.924Z,14.57
2017-09-28T21:36:44.165Z,15.17
2017-09-28T21:39:11.753Z,14.60
2017-09-28T21:41:39.286Z,14.70
2017-09-28T21:44:07.583Z,14.13
2017-09-28T21:46:35.140Z,15.60
2017-09-28T21:49:03.428Z,15.57
2017-09-28T21:51:30.932Z,14.10
2017-09-28T21:53:59.286Z,12.70
2017-09-28T21:56:27.672Z,13.17
2017-09-28T21:58:56.700Z,14.23
2017-09-28T22:01:24.206Z,13.43
2017-09-28T22:03:52.916Z,15.70
2017-09-28T22:06:21.181Z,13.53
2017-09-28T22:08:49.465Z,14.50
2017-09-28T22:11:17.768Z,15.60
2017-09-28T22:13:46.045Z,16.20
2017-09-28T22:16:13.615Z,14.77
2017-09-28T22:18:42.261Z,14.80
2017-09-28T22:21:09.798Z,10.30
2017-09-28T22:23:38.075Z,12.33
2017-09-28T22:26:05.642Z,13.63
2017-09-28T22:28:33.570Z,12.37
2017-09-28T22:31:01.497Z,13.00
2017-09-28T22:33:29.048Z,13.90
2017-09-28T22:35:57.373Z,11.70
2017-09-28T22:38:25.279Z,12.23
2017-09-28T22:40:52.966Z,13.20
2017-09-28T22:43:21.268Z,13.47
2017-09-28T22:45:50.126Z,13.97
2017-09-28T22:48:17.698Z,15.63
2017-09-28T22:50:45.604Z,15.17
2017-09-28T22:53:13.164Z,15.73
2017-09-28T22:55:41.448Z,15.40
2017-09-28T22:58:09.101Z,13.97
2017-09-28T23:00:38.114Z,14.43
2017-09-28T23:03:05.649Z,13.87
2017-09-28T23:05:34.088Z,13.90
2017-09-28T23:08:01.641Z,14.30
2017-09-28T23:10:29.915Z,17.60
2017-09-28T23:12:58.413Z,17.93
2017-09-28T23:15:25.940Z,19.00
2017-09-28T23:17:53.446Z,20.00
2017-09-28T23:20:21.008Z,16.40
2017-09-28T23:22:48.541Z,19.67
2017-09-28T23:25:16.058Z,18.07
2017-09-28T23:27:43.612Z,18.23
2017-09-28T23:30:11.512Z,16.93
2017-09-28T23:32:40.005Z,18.10
2017-09-28T23:35:07.539Z,18.80
2017-09-28T23:37:35.485Z,18.70
2017-09-28T23:40:03.012Z,19.13
2017-09-28T23:42:30.521Z,21.00
2017-09-28T23:44:58.228Z,19.70
2017-09-28T23:47:25.730Z,19.40
2017-09-28T23:49:53.280Z,19.20
2017-09-28T23:52:21.620Z,17.90
2017-09-28T23:54:49.177Z,20.20
2017-09-28T23:57:16.867Z,18.40
2017-09-28T23:59:44.472Z,19.17
